Terminal Aerodrome Forecast
Issued by NWS Sterling, VA

Current Version | Previous Version | Text Only | Print | Product List | Glossary Off
Versions: 1 2 3 4 5 6 7 8 9 10 11 12 13 14 15 16

132
FTUS41 KLWX 131123
TAFMRB
TAF
KMRB 131123Z 1312/1412 29018G29KT P6SM SCT060
     FM132100 24007KT P6SM OVC050
     FM140000 VRB03KT P6SM VCSH OVC040
     FM140600 26006KT P6SM BKN035=

USA.gov is the U.S. government's official web portal to all federal, state and local government web resources and services.